KMSY

Louis Armstrong New Orleans International Airport

New Orleans, Louisiana, USA
METAR KMSY 221953Z 05005KT 10SM FEW080 OVC250 23/17 A3011 RMK AO2 SLP200 T02330167
Observed Flight Rules
Oct-22 @ 19:53 UTC (56 minutes ago) Visual Flight Rules
Wind Visibility Clouds
50° at 5 knots 10 miles
  • Few at 8,000' AGL
  • Overcast at 25,000' AGL
Temperatures Readings
Current 23°C / 73°F
Dewpoint 17°C / 63°F
Humidity 69%
Altimeter 30.11" Hg
Pressure 1020 hPa
Elevation 5
METAR KMSY 221953Z 05005KT 10SM FEW080 OVC250 23/17 A3011 RMK AO2 SLP200 T02330167
Observed Flight Rules
Oct-22 @ 19:53 UTC
(56 minutes ago)
VFR
Wind Visibility
50° at 5 knots 10 miles
Clouds
  • Few at 8,000' AGL
  • Overcast at 25,000' AGL
Temperature Dewpoint
23°C / 73°F 17°C / 63°F
Humidity Altimeter Pressure
69% 30.11" Hg 1020 hPa